(°F)
48°
48°
47°
46°
45°
43°
42°
(°F)
35°
35°
35°
34°
34°
33°
33°
SW
SW
SSW
SSW
SSW
SSW
SSW
(mph)
17-30
17-30
16-30
15-28
13-24
12-22
10-19
(in)
0
0
0
0
0
0
0
(%)
3
3
3
3
2
2
1

Sun elevation

/ 18.4°
sun-icon
UV 1
08:06
17:54
Waning gibbous moon (212°)
18:40
11:15

METAR for 57.92°N 56.02°E (USPP)

Time Conditions Temperature/
Dewpoint
Wind Visibility Weather Clouds Pressure Change Raw
VFR 48.2°F / 33.8°F 260º 17kt >10km - Scattered Clouds 3600ft 1002 No Significant change. Runway 21: Wet or puddles, 1-10% contamination with 1mm, friction coefficient 0.50. USPP 230900Z 26009MPS 9999 SCT036CB 09/01 Q1002 R21/210150 NOSIG RMK QFE741
VFR 48.2°F / 35.6°F 250º 17kt >10km - Scattered Clouds 4100ft 1001 No Significant change. Runway 21: Wet or puddles, 1-10% contamination with 1mm, friction coefficient 0.50. USPP 230830Z 25009MPS 9999 SCT041 09/02 Q1001 R21/210150 NOSIG RMK QFE740
VFR 48.2°F / 33.8°F 260º 17kt >10km - Scattered Clouds 3500ft 1001 No Significant change. Runway 21: Wet or puddles, 1-10% contamination with 1mm, friction coefficient 0.50. USPP 230800Z 26009MPS 9999 SCT035 09/01 Q1001 R21/210150 NOSIG RMK QFE740
VFR 50°F / 33.8°F 250º 19kt Gust 29kt >10km - Scattered Clouds 3700ft 1001 No Significant change. Runway 21: Wet or puddles, 1-10% contamination with 1mm, friction coefficient 0.50. USPP 230730Z 25010G15MPS 9999 SCT037 10/01 Q1001 R21/210150 NOSIG RMK QFE740
VFR 48.2°F / 35.6°F 250º 21kt >10km - Scattered Clouds 3200ft 1000 No Significant change. Runway 21: Wet or puddles, 1-10% contamination with 1mm, friction coefficient 0.50. USPP 230700Z 25011MPS 9999 SCT032 09/02 Q1000 R21/210150 NOSIG RMK QFE740
VFR 48.2°F / 35.6°F 250º variable 220º to 290º 19kt >10km - Scattered Clouds 4500ft 1000 No Significant change. Runway 21: Wet or puddles, 1-10% contamination with 1mm, friction coefficient 0.50. USPP 230630Z 25010MPS 220V290 9999 SCT045 09/02 Q1000 R21/210150 NOSIG RMK QFE739
VFR 48.2°F / 35.6°F 250º 21kt >10km - Scattered Clouds 2500ft 1000 No Significant change. Runway 21: Wet or puddles, 1-10% contamination with 1mm, friction coefficient 0.50. USPP 230600Z 25011MPS 9999 SCT025 09/02 Q1000 R21/210150 NOSIG RMK QFE739
VFR 46.4°F / 35.6°F 260º 19kt >10km - Scattered Clouds 2500ft 999 No Significant change. Runway 21: Wet or puddles, 1-10% contamination with 1mm, friction coefficient 0.50. USPP 230530Z 26010MPS 9999 SCT025 08/02 Q0999 R21/210150 NOSIG RMK QFE739
VFR 48.2°F / 39.2°F 250º 17kt >10km - Scattered Clouds 2700ft 999 No Significant change. Runway 21: Wet or puddles, 1-10% contamination with 1mm, friction coefficient 0.50. USPP 230500Z 25009MPS 9999 SCT027 09/04 Q0999 R21/210150 NOSIG RMK QFE738
VFR 46.4°F / 37.4°F 250º 19kt >10km - Clouds and Visibility OK 998 No Significant change. Runway 21: Wet or puddles, 1-10% contamination with 1mm, friction coefficient 0.50. USPP 230430Z 25010MPS CAVOK 08/03 Q0998 R21/210150 NOSIG RMK QFE738
VFR 46.4°F / 39.2°F 240º 17kt Gust 27kt >10km - Scattered Clouds 4300ft 998 No Significant change. Runway 21: Wet or puddles, 1-10% contamination with 1mm, friction coefficient 0.50. USPP 230400Z 24009G14MPS 9999 SCT043 08/04 Q0998 R21/210150 NOSIG RMK QFE738
VFR 48.2°F / 41°F 240º 17kt >10km - Clouds and Visibility OK 997 No Significant change. Runway 21: Wet or puddles, 51-100% contamination with 1mm, friction coefficient 0.50. USPP 230330Z 24009MPS CAVOK 09/05 Q0997 R21/290150 NOSIG RMK QFE737
VFR 46.4°F / 41°F 240º 14kt >10km - Broken Clouds 4800ft 997 No Significant change. Runway 21: Wet or puddles, 51-100% contamination with 1mm, friction coefficient 0.50. USPP 230300Z 24007MPS 9999 BKN048 08/05 Q0997 R21/290150 NOSIG RMK QFE737
MVFR 48.2°F / 42.8°F 250º 16kt >10km - Broken Clouds 2900ft 997 No Significant change. Runway 21: Wet or puddles, 51-100% contamination with 1mm, friction coefficient 0.50. USPP 230230Z 25008MPS 9999 BKN029 09/06 Q0997 R21/290150 NOSIG RMK QFE737
MVFR 50°F / 42.8°F 250º 16kt >10km - Broken Clouds 2500ft 997 No Significant change. Runway 21: Wet or puddles, 51-100% contamination with 1mm, friction coefficient 0.50. USPP 230200Z 25008MPS 9999 BKN025 10/06 Q0997 R21/290150 NOSIG RMK QFE737
MVFR 48.2°F / 42.8°F 240º 16kt >10km - Broken Clouds 2500ft 996 No Significant change. Runway 21: Wet or puddles, 51-100% contamination with 1mm, friction coefficient 0.50. USPP 230130Z 24008MPS 9999 BKN025 09/06 Q0996 R21/290150 NOSIG RMK QFE737
MVFR 48.2°F / 42.8°F 240º 16kt >10km - Broken Clouds 2200ft 996 No Significant change. Runway 21: Wet or puddles, 51-100% contamination with 1mm, friction coefficient 0.50. USPP 230100Z 24008MPS 9999 BKN022 09/06 Q0996 R21/290150 NOSIG RMK QFE736
MVFR 50°F / 44.6°F 240º 17kt >10km - Broken Clouds 2300ft 996 No Significant change. Runway 21: Wet or puddles, 51-100% contamination with 2mm, friction coefficient 0.50. USPP 230030Z 24009MPS 9999 BKN023 10/07 Q0996 R21/290250 NOSIG RMK QFE736
MVFR 50°F / 44.6°F 230º 16kt >10km - Broken Clouds 1900ft 995 No Significant change. Runway 21: Wet or puddles, 51-100% contamination with 2mm, friction coefficient 0.50. USPP 230000Z 23008MPS 9999 BKN019 10/07 Q0995 R21/290250 NOSIG RMK QFE736
MVFR 48.2°F / 44.6°F 230º 14kt >10km - Broken Clouds 1600ft 995 No Significant change. Runway 21: Wet or puddles, 51-100% contamination with 2mm, friction coefficient 0.50. USPP 222330Z 23007MPS 9999 BKN016 09/07 Q0995 R21/290250 NOSIG RMK QFE736
VFR 48.2°F / 44.6°F 240º 14kt >10km - Scattered Clouds 2000ft 995 No Significant change. Runway 21: Wet or puddles, 51-100% contamination with 2mm, friction coefficient 0.50. USPP 222300Z 24007MPS 9999 SCT020 09/07 Q0995 R21/290250 NOSIG RMK QFE736
VFR 50°F / 46.4°F 230º 16kt >10km - Scattered Clouds 2600ft 995 No Significant change. Runway 21: Wet or puddles, 51-100% contamination with 2mm, friction coefficient 0.50. USPP 222230Z 23008MPS 9999 SCT026 10/08 Q0995 R21/290250 NOSIG RMK QFE736
MVFR 50°F / 46.4°F 240º 14kt >10km - Broken Clouds 1800ft 995 No Significant change. Runway 21: Wet or puddles, 51-100% contamination with 2mm, friction coefficient 0.50. USPP 222200Z 24007MPS 9999 BKN018 10/08 Q0995 R21/290250 NOSIG RMK QFE735
MVFR 50°F / 46.4°F 240º 14kt >10km - Overcast 1400ft 995 No Significant change. Runway 21: Wet or puddles, 51-100% contamination with 2mm, friction coefficient 0.50. USPP 222130Z 24007MPS 9999 OVC014 10/08 Q0995 R21/290250 NOSIG RMK QFE735

VFR

48.2°F / 33.8°F

[More]
Wind 260º 17kt
Visibility >10km
Weather -
Clouds Scattered Clouds 3600ft
Pressure 1002
Change No Significant change. Runway 21: Wet or puddles, 1-10% contamination with 1mm, friction coefficient 0.50.
Raw USPP 230900Z 26009MPS 9999 SCT036CB 09/01 Q1002 R21/210150 NOSIG RMK QFE741

VFR

48.2°F / 35.6°F

[More]
Wind 250º 17kt
Visibility >10km
Weather -
Clouds Scattered Clouds 4100ft
Pressure 1001
Change No Significant change. Runway 21: Wet or puddles, 1-10% contamination with 1mm, friction coefficient 0.50.
Raw USPP 230830Z 25009MPS 9999 SCT041 09/02 Q1001 R21/210150 NOSIG RMK QFE740

VFR

48.2°F / 33.8°F

[More]
Wind 260º 17kt
Visibility >10km
Weather -
Clouds Scattered Clouds 3500ft
Pressure 1001
Change No Significant change. Runway 21: Wet or puddles, 1-10% contamination with 1mm, friction coefficient 0.50.
Raw USPP 230800Z 26009MPS 9999 SCT035 09/01 Q1001 R21/210150 NOSIG RMK QFE740

VFR

50°F / 33.8°F

[More]
Wind 250º 19kt Gust 29kt
Visibility >10km
Weather -
Clouds Scattered Clouds 3700ft
Pressure 1001
Change No Significant change. Runway 21: Wet or puddles, 1-10% contamination with 1mm, friction coefficient 0.50.
Raw USPP 230730Z 25010G15MPS 9999 SCT037 10/01 Q1001 R21/210150 NOSIG RMK QFE740

VFR

48.2°F / 35.6°F

[More]
Wind 250º 21kt
Visibility >10km
Weather -
Clouds Scattered Clouds 3200ft
Pressure 1000
Change No Significant change. Runway 21: Wet or puddles, 1-10% contamination with 1mm, friction coefficient 0.50.
Raw USPP 230700Z 25011MPS 9999 SCT032 09/02 Q1000 R21/210150 NOSIG RMK QFE740

VFR

48.2°F / 35.6°F

[More]
Wind 250º variable 220º to 290º 19kt
Visibility >10km
Weather -
Clouds Scattered Clouds 4500ft
Pressure 1000
Change No Significant change. Runway 21: Wet or puddles, 1-10% contamination with 1mm, friction coefficient 0.50.
Raw USPP 230630Z 25010MPS 220V290 9999 SCT045 09/02 Q1000 R21/210150 NOSIG RMK QFE739

VFR

48.2°F / 35.6°F

[More]
Wind 250º 21kt
Visibility >10km
Weather -
Clouds Scattered Clouds 2500ft
Pressure 1000
Change No Significant change. Runway 21: Wet or puddles, 1-10% contamination with 1mm, friction coefficient 0.50.
Raw USPP 230600Z 25011MPS 9999 SCT025 09/02 Q1000 R21/210150 NOSIG RMK QFE739

VFR

46.4°F / 35.6°F

[More]
Wind 260º 19kt
Visibility >10km
Weather -
Clouds Scattered Clouds 2500ft
Pressure 999
Change No Significant change. Runway 21: Wet or puddles, 1-10% contamination with 1mm, friction coefficient 0.50.
Raw USPP 230530Z 26010MPS 9999 SCT025 08/02 Q0999 R21/210150 NOSIG RMK QFE739

VFR

48.2°F / 39.2°F

[More]
Wind 250º 17kt
Visibility >10km
Weather -
Clouds Scattered Clouds 2700ft
Pressure 999
Change No Significant change. Runway 21: Wet or puddles, 1-10% contamination with 1mm, friction coefficient 0.50.
Raw USPP 230500Z 25009MPS 9999 SCT027 09/04 Q0999 R21/210150 NOSIG RMK QFE738

VFR

46.4°F / 37.4°F

[More]
Wind 250º 19kt
Visibility >10km
Weather -
Clouds Clouds and Visibility OK
Pressure 998
Change No Significant change. Runway 21: Wet or puddles, 1-10% contamination with 1mm, friction coefficient 0.50.
Raw USPP 230430Z 25010MPS CAVOK 08/03 Q0998 R21/210150 NOSIG RMK QFE738

VFR

46.4°F / 39.2°F

[More]
Wind 240º 17kt Gust 27kt
Visibility >10km
Weather -
Clouds Scattered Clouds 4300ft
Pressure 998
Change No Significant change. Runway 21: Wet or puddles, 1-10% contamination with 1mm, friction coefficient 0.50.
Raw USPP 230400Z 24009G14MPS 9999 SCT043 08/04 Q0998 R21/210150 NOSIG RMK QFE738

VFR

48.2°F / 41°F

[More]
Wind 240º 17kt
Visibility >10km
Weather -
Clouds Clouds and Visibility OK
Pressure 997
Change No Significant change. Runway 21: Wet or puddles, 51-100% contamination with 1mm, friction coefficient 0.50.
Raw USPP 230330Z 24009MPS CAVOK 09/05 Q0997 R21/290150 NOSIG RMK QFE737

VFR

46.4°F / 41°F

[More]
Wind 240º 14kt
Visibility >10km
Weather -
Clouds Broken Clouds 4800ft
Pressure 997
Change No Significant change. Runway 21: Wet or puddles, 51-100% contamination with 1mm, friction coefficient 0.50.
Raw USPP 230300Z 24007MPS 9999 BKN048 08/05 Q0997 R21/290150 NOSIG RMK QFE737

MVFR

48.2°F / 42.8°F

[More]
Wind 250º 16kt
Visibility >10km
Weather -
Clouds Broken Clouds 2900ft
Pressure 997
Change No Significant change. Runway 21: Wet or puddles, 51-100% contamination with 1mm, friction coefficient 0.50.
Raw USPP 230230Z 25008MPS 9999 BKN029 09/06 Q0997 R21/290150 NOSIG RMK QFE737

MVFR

50°F / 42.8°F

[More]
Wind 250º 16kt
Visibility >10km
Weather -
Clouds Broken Clouds 2500ft
Pressure 997
Change No Significant change. Runway 21: Wet or puddles, 51-100% contamination with 1mm, friction coefficient 0.50.
Raw USPP 230200Z 25008MPS 9999 BKN025 10/06 Q0997 R21/290150 NOSIG RMK QFE737

MVFR

48.2°F / 42.8°F

[More]
Wind 240º 16kt
Visibility >10km
Weather -
Clouds Broken Clouds 2500ft
Pressure 996
Change No Significant change. Runway 21: Wet or puddles, 51-100% contamination with 1mm, friction coefficient 0.50.
Raw USPP 230130Z 24008MPS 9999 BKN025 09/06 Q0996 R21/290150 NOSIG RMK QFE737

MVFR

48.2°F / 42.8°F

[More]
Wind 240º 16kt
Visibility >10km
Weather -
Clouds Broken Clouds 2200ft
Pressure 996
Change No Significant change. Runway 21: Wet or puddles, 51-100% contamination with 1mm, friction coefficient 0.50.
Raw USPP 230100Z 24008MPS 9999 BKN022 09/06 Q0996 R21/290150 NOSIG RMK QFE736

MVFR

50°F / 44.6°F

[More]
Wind 240º 17kt
Visibility >10km
Weather -
Clouds Broken Clouds 2300ft
Pressure 996
Change No Significant change. Runway 21: Wet or puddles, 51-100% contamination with 2mm, friction coefficient 0.50.
Raw USPP 230030Z 24009MPS 9999 BKN023 10/07 Q0996 R21/290250 NOSIG RMK QFE736

MVFR

50°F / 44.6°F

[More]
Wind 230º 16kt
Visibility >10km
Weather -
Clouds Broken Clouds 1900ft
Pressure 995
Change No Significant change. Runway 21: Wet or puddles, 51-100% contamination with 2mm, friction coefficient 0.50.
Raw USPP 230000Z 23008MPS 9999 BKN019 10/07 Q0995 R21/290250 NOSIG RMK QFE736

MVFR

48.2°F / 44.6°F

[More]
Wind 230º 14kt
Visibility >10km
Weather -
Clouds Broken Clouds 1600ft
Pressure 995
Change No Significant change. Runway 21: Wet or puddles, 51-100% contamination with 2mm, friction coefficient 0.50.
Raw USPP 222330Z 23007MPS 9999 BKN016 09/07 Q0995 R21/290250 NOSIG RMK QFE736

VFR

48.2°F / 44.6°F

[More]
Wind 240º 14kt
Visibility >10km
Weather -
Clouds Scattered Clouds 2000ft
Pressure 995
Change No Significant change. Runway 21: Wet or puddles, 51-100% contamination with 2mm, friction coefficient 0.50.
Raw USPP 222300Z 24007MPS 9999 SCT020 09/07 Q0995 R21/290250 NOSIG RMK QFE736

VFR

50°F / 46.4°F

[More]
Wind 230º 16kt
Visibility >10km
Weather -
Clouds Scattered Clouds 2600ft
Pressure 995
Change No Significant change. Runway 21: Wet or puddles, 51-100% contamination with 2mm, friction coefficient 0.50.
Raw USPP 222230Z 23008MPS 9999 SCT026 10/08 Q0995 R21/290250 NOSIG RMK QFE736

MVFR

50°F / 46.4°F

[More]
Wind 240º 14kt
Visibility >10km
Weather -
Clouds Broken Clouds 1800ft
Pressure 995
Change No Significant change. Runway 21: Wet or puddles, 51-100% contamination with 2mm, friction coefficient 0.50.
Raw USPP 222200Z 24007MPS 9999 BKN018 10/08 Q0995 R21/290250 NOSIG RMK QFE735

MVFR

50°F / 46.4°F

[More]
Wind 240º 14kt
Visibility >10km
Weather -
Clouds Overcast 1400ft
Pressure 995
Change No Significant change. Runway 21: Wet or puddles, 51-100% contamination with 2mm, friction coefficient 0.50.
Raw USPP 222130Z 24007MPS 9999 OVC014 10/08 Q0995 R21/290250 NOSIG RMK QFE735

TAF for 57.92°N 56.02°E (USPP)

From till


From till Wind 250º 12kt. Gust 33kt. Visibility 10km or more. Broken Clouds 2000ft.
Temporarly from till Light Showers Rain . Broken Clouds 1600ft.
Becoming from till Wind 210º 6kt. Gust 19kt. Visibility 10km or more. Broken Clouds 2000ft.

Raw: TAF USPP 230756Z 2309/2409 25006G17MPS 9999 BKN020 TEMPO 2309/2312 -SHRA BKN016CB BECMG 2318/2319 21003G10MPS

Current satellite and rain images for 57.92°N 56.02°E

The location marker is placed on 57.92°N 56.02°E. [More]

The real-time satellite image combines visible light during daytime with infrared radiation during nighttime. At night, the image is not dark as infrared radiation can detect temperature differences. Unfortunately, low clouds and fog are difficult to distinguish from ground temperatures and thus can be almost invisible during the night. Meteosat satellite images for Europe are updated in real-time every 5 minutes. GOES-16/GOES-17 (North & South America) and Himawari (Asia) images update every 10 minutes.

Copyright 2021 EUMETSAT / meteoblue. / Copyright 2021 meteoblue

Radar and precipitation nowcast for 57.92°N 56.02°E

Drizzle
Light
Moderate
Heavy
Very Heavy
Hail

The location marker is placed on 57.92°N 56.02°E. This animation shows the precipitation radar for the last hour, as well as a 1h forecast. Drizzle or light snow fall might be invisible for the radar. Precipitation intensity is colour coded, ranging from light blue to orange.